sensor_id;sensor_type;location;lat;lon;timestamp;pressure;altitude;pressure_sealevel;temperature
80422;BMP280;69763;50.182;9.144;2024-01-15T00:00:43;98819.50;;;-4.25
80422;BMP280;69763;50.182;9.144;2024-01-15T00:03:09;98819.06;;;-4.23
80422;BMP280;69763;50.182;9.144;2024-01-15T00:05:34;98817.16;;;-4.23
80422;BMP280;69763;50.182;9.144;2024-01-15T00:08:00;98813.78;;;-4.23
80422;BMP280;69763;50.182;9.144;2024-01-15T00:10:25;98800.13;;;-4.22
80422;BMP280;69763;50.182;9.144;2024-01-15T00:12:52;98802.03;;;-4.22
80422;BMP280;69763;50.182;9.144;2024-01-15T00:15:17;98806.56;;;-4.23
80422;BMP280;69763;50.182;9.144;2024-01-15T00:17:43;98792.19;;;-4.22
80422;BMP280;69763;50.182;9.144;2024-01-15T00:20:09;98794.81;;;-4.22
80422;BMP280;69763;50.182;9.144;2024-01-15T00:22:34;98792.19;;;-4.22
80422;BMP280;69763;50.182;9.144;2024-01-15T00:25:00;98782.34;;;-4.21
80422;BMP280;69763;50.182;9.144;2024-01-15T00:27:25;98772.50;;;-4.21
80422;BMP280;69763;50.182;9.144;2024-01-15T00:29:52;98778.94;;;-4.22
80422;BMP280;69763;50.182;9.144;2024-01-15T00:32:17;98777.78;;;-4.21
80422;BMP280;69763;50.182;9.144;2024-01-15T00:34:43;98782.34;;;-4.21
80422;BMP280;69763;50.182;9.144;2024-01-15T00:37:08;98775.88;;;-4.20
80422;BMP280;69763;50.182;9.144;2024-01-15T00:39:33;98776.31;;;-4.22
80422;BMP280;69763;50.182;9.144;2024-01-15T00:41:59;98774.09;;;-4.23
80422;BMP280;69763;50.182;9.144;2024-01-15T00:44:24;98766.59;;;-4.25
80422;BMP280;69763;50.182;9.144;2024-01-15T00:46:51;98771.88;;;-4.25
80422;BMP280;69763;50.182;9.144;2024-01-15T00:49:16;98766.28;;;-4.27
80422;BMP280;69763;50.182;9.144;2024-01-15T00:51:42;98752.31;;;-4.27
80422;BMP280;69763;50.182;9.144;2024-01-15T00:54:07;98766.72;;;-4.28
80422;BMP280;69763;50.182;9.144;2024-01-15T00:56:33;98759.19;;;-4.30
80422;BMP280;69763;50.182;9.144;2024-01-15T00:58:58;98757.31;;;-4.30
80422;BMP280;69763;50.182;9.144;2024-01-15T01:01:23;98761.09;;;-4.31
80422;BMP280;69763;50.182;9.144;2024-01-15T01:03:50;98758.44;;;-4.31
80422;BMP280;69763;50.182;9.144;2024-01-15T01:06:16;98757.41;;;-4.33
80422;BMP280;69763;50.182;9.144;2024-01-15T01:08:41;98757.41;;;-4.33
80422;BMP280;69763;50.182;9.144;2024-01-15T01:11:07;98757.84;;;-4.35
80422;BMP280;69763;50.182;9.144;2024-01-15T01:13:32;98762.41;;;-4.35
80422;BMP280;69763;50.182;9.144;2024-01-15T01:15:57;98753.00;;;-4.36
80422;BMP280;69763;50.182;9.144;2024-01-15T01:18:23;98755.63;;;-4.36
80422;BMP280;69763;50.182;9.144;2024-01-15T01:20:50;98757.13;;;-4.35
80422;BMP280;69763;50.182;9.144;2024-01-15T01:23:15;98757.13;;;-4.35
80422;BMP280;69763;50.182;9.144;2024-01-15T01:25:41;98754.47;;;-4.35
80422;BMP280;69763;50.182;9.144;2024-01-15T01:28:06;98753.28;;;-4.34
80422;BMP280;69763;50.182;9.144;2024-01-15T01:30:31;98751.38;;;-4.34
80422;BMP280;69763;50.182;9.144;2024-01-15T01:32:57;98739.63;;;-4.33
80422;BMP280;69763;50.182;9.144;2024-01-15T01:35:22;98744.94;;;-4.33
80422;BMP280;69763;50.182;9.144;2024-01-15T01:37:49;98744.09;;;-4.30
80422;BMP280;69763;50.182;9.144;2024-01-15T01:40:14;98738.78;;;-4.30
80422;BMP280;69763;50.182;9.144;2024-01-15T01:42:40;98746.28;;;-4.28
80422;BMP280;69763;50.182;9.144;2024-01-15T01:45:06;98741.75;;;-4.27
80422;BMP280;69763;50.182;9.144;2024-01-15T01:47:31;98740.56;;;-4.26
80422;BMP280;69763;50.182;9.144;2024-01-15T01:49:57;98740.13;;;-4.25
80422;BMP280;69763;50.182;9.144;2024-01-15T01:52:23;98740.88;;;-4.24
80422;BMP280;69763;50.182;9.144;2024-01-15T01:54:51;98739.69;;;-4.23
80422;BMP280;69763;50.182;9.144;2024-01-15T01:57:17;98735.88;;;-4.22
80422;BMP280;69763;50.182;9.144;2024-01-15T01:59:44;98740.00;;;-4.21
80422;BMP280;69763;50.182;9.144;2024-01-15T02:02:09;98740.72;;;-4.21
80422;BMP280;69763;50.182;9.144;2024-01-15T02:04:35;98729.72;;;-4.19
80422;BMP280;69763;50.182;9.144;2024-01-15T02:07:01;98735.31;;;-4.17
80422;BMP280;69763;50.182;9.144;2024-01-15T02:09:26;98730.75;;;-4.17
80422;BMP280;69763;50.182;9.144;2024-01-15T02:11:53;98722.81;;;-4.17
80422;BMP280;69763;50.182;9.144;2024-01-15T02:14:19;98725.75;;;-4.15
80422;BMP280;69763;50.182;9.144;2024-01-15T02:16:44;98743.84;;;-4.13
80422;BMP280;69763;50.182;9.144;2024-01-15T02:19:14;98739.28;;;-4.13
80422;BMP280;69763;50.182;9.144;2024-01-15T02:21:40;98726.81;;;-4.12
80422;BMP280;69763;50.182;9.144;2024-01-15T02:24:07;98718.88;;;-4.12
80422;BMP280;69763;50.182;9.144;2024-01-15T02:26:32;98714.31;;;-4.12
80422;BMP280;69763;50.182;9.144;2024-01-15T02:28:58;98719.59;;;-4.12
80422;BMP280;69763;50.182;9.144;2024-01-15T02:31:23;98727.84;;;-4.10
80422;BMP280;69763;50.182;9.144;2024-01-15T02:33:49;98718.44;;;-4.11
80422;BMP280;69763;50.182;9.144;2024-01-15T02:36:16;98713.44;;;-4.09
80422;BMP280;69763;50.182;9.144;2024-01-15T02:38:41;98704.75;;;-4.09
80422;BMP280;69763;50.182;9.144;2024-01-15T02:41:08;98699.00;;;-4.08
80422;BMP280;69763;50.182;9.144;2024-01-15T02:43:33;98715.63;;;-4.07
80422;BMP280;69763;50.182;9.144;2024-01-15T02:45:59;98711.78;;;-4.06
80422;BMP280;69763;50.182;9.144;2024-01-15T02:48:24;98709.16;;;-4.06
80422;BMP280;69763;50.182;9.144;2024-01-15T02:50:50;98725.75;;;-4.06
80422;BMP280;69763;50.182;9.144;2024-01-15T02:53:15;98713.56;;;-4.03
80422;BMP280;69763;50.182;9.144;2024-01-15T02:55:40;98713.56;;;-4.03
80422;BMP280;69763;50.182;9.144;2024-01-15T02:58:07;98709.75;;;-4.02
80422;BMP280;69763;50.182;9.144;2024-01-15T03:00:33;98705.94;;;-4.01
80422;BMP280;69763;50.182;9.144;2024-01-15T03:02:58;98708.88;;;-3.99
80422;BMP280;69763;50.182;9.144;2024-01-15T03:05:24;98705.06;;;-3.98
80422;BMP280;69763;50.182;9.144;2024-01-15T03:07:49;98705.06;;;-3.98
80422;BMP280;69763;50.182;9.144;2024-01-15T03:10:15;98712.56;;;-3.97
80422;BMP280;69763;50.182;9.144;2024-01-15T03:12:40;98706.09;;;-3.96
80422;BMP280;69763;50.182;9.144;2024-01-15T03:15:07;98703.00;;;-3.94
80422;BMP280;69763;50.182;9.144;2024-01-15T03:17:33;98709.78;;;-3.93
80422;BMP280;69763;50.182;9.144;2024-01-15T03:19:58;98713.16;;;-3.92
80422;BMP280;69763;50.182;9.144;2024-01-15T03:22:24;98713.88;;;-3.92
80422;BMP280;69763;50.182;9.144;2024-01-15T03:24:52;98712.41;;;-3.93
80422;BMP280;69763;50.182;9.144;2024-01-15T03:27:18;98708.59;;;-3.92
80422;BMP280;69763;50.182;9.144;2024-01-15T03:29:43;98708.59;;;-3.92
80422;BMP280;69763;50.182;9.144;2024-01-15T03:32:10;98711.97;;;-3.91
80422;BMP280;69763;50.182;9.144;2024-01-15T03:34:35;98709.63;;;-3.89
80422;BMP280;69763;50.182;9.144;2024-01-15T03:37:01;98707.28;;;-3.87
80422;BMP280;69763;50.182;9.144;2024-01-15T03:39:26;98702.72;;;-3.87
80422;BMP280;69763;50.182;9.144;2024-01-15T03:41:51;98708.34;;;-3.85
80422;BMP280;69763;50.182;9.144;2024-01-15T03:44:17;98708.63;;;-3.83
80422;BMP280;69763;50.182;9.144;2024-01-15T03:46:42;98699.53;;;-3.82
80422;BMP280;69763;50.182;9.144;2024-01-15T03:49:09;98703.94;;;-3.79
80422;BMP280;69763;50.182;9.144;2024-01-15T03:51:34;98706.44;;;-3.75
80422;BMP280;69763;50.182;9.144;2024-01-15T03:54:00;98705.28;;;-3.74
80422;BMP280;69763;50.182;9.144;2024-01-15T03:56:25;98702.63;;;-3.74
80422;BMP280;69763;50.182;9.144;2024-01-15T03:58:50;98702.19;;;-3.73
80422;BMP280;69763;50.182;9.144;2024-01-15T04:01:16;98706.31;;;-3.72
80422;BMP280;69763;50.182;9.144;2024-01-15T04:03:41;98702.78;;;-3.69
80422;BMP280;69763;50.182;9.144;2024-01-15T04:06:08;98695.56;;;-3.68
80422;BMP280;69763;50.182;9.144;2024-01-15T04:08:33;98696.75;;;-3.69
80422;BMP280;69763;50.182;9.144;2024-01-15T04:10:59;98695.56;;;-3.68
80422;BMP280;69763;50.182;9.144;2024-01-15T04:13:24;98694.09;;;-3.69
80422;BMP280;69763;50.182;9.144;2024-01-15T04:15:50;98681.28;;;-3.71
80422;BMP280;69763;50.182;9.144;2024-01-15T04:18:16;98694.09;;;-3.69
80422;BMP280;69763;50.182;9.144;2024-01-15T04:20:41;98683.50;;;-3.69
80422;BMP280;69763;50.182;9.144;2024-01-15T04:23:08;98678.94;;;-3.69
80422;BMP280;69763;50.182;9.144;2024-01-15T04:25:33;98684.53;;;-3.67
80422;BMP280;69763;50.182;9.144;2024-01-15T04:27:59;98693.66;;;-3.68
80422;BMP280;69763;50.182;9.144;2024-01-15T04:30:24;98688.34;;;-3.68
80422;BMP280;69763;50.182;9.144;2024-01-15T04:32:50;98698.50;;;-3.66
80422;BMP280;69763;50.182;9.144;2024-01-15T04:35:15;98686.44;;;-3.67
80422;BMP280;69763;50.182;9.144;2024-01-15T04:37:40;98687.91;;;-3.66
80422;BMP280;69763;50.182;9.144;2024-01-15T04:40:09;98681.88;;;-3.67
80422;BMP280;69763;50.182;9.144;2024-01-15T04:42:34;98683.34;;;-3.66
80422;BMP280;69763;50.182;9.144;2024-01-15T04:45:00;98682.19;;;-3.65
80422;BMP280;69763;50.182;9.144;2024-01-15T04:47:25;98678.78;;;-3.65
80422;BMP280;69763;50.182;9.144;2024-01-15T04:49:51;98669.69;;;-3.64
80422;BMP280;69763;50.182;9.144;2024-01-15T04:52:16;98679.81;;;-3.62
80422;BMP280;69763;50.182;9.144;2024-01-15T04:54:41;98665.13;;;-3.63
80422;BMP280;69763;50.182;9.144;2024-01-15T04:57:08;98665.84;;;-3.63
80422;BMP280;69763;50.182;9.144;2024-01-15T04:59:33;98678.66;;;-3.61
80422;BMP280;69763;50.182;9.144;2024-01-15T05:01:59;98669.53;;;-3.60
80422;BMP280;69763;50.182;9.144;2024-01-15T05:04:24;98671.00;;;-3.59
80422;BMP280;69763;50.182;9.144;2024-01-15T05:06:50;98670.56;;;-3.58
80422;BMP280;69763;50.182;9.144;2024-01-15T05:09:16;98672.47;;;-3.58
80422;BMP280;69763;50.182;9.144;2024-01-15T05:11:41;98669.09;;;-3.59
80422;BMP280;69763;50.182;9.144;2024-01-15T05:14:08;98664.53;;;-3.58
80422;BMP280;69763;50.182;9.144;2024-01-15T05:16:33;98663.06;;;-3.59
80422;BMP280;69763;50.182;9.144;2024-01-15T05:18:59;98664.53;;;-3.58
80422;BMP280;69763;50.182;9.144;2024-01-15T05:21:24;98656.59;;;-3.58
80422;BMP280;69763;50.182;9.144;2024-01-15T05:23:49;98661.88;;;-3.58
80422;BMP280;69763;50.182;9.144;2024-01-15T05:26:15;98655.84;;;-3.59
80422;BMP280;69763;50.182;9.144;2024-01-15T05:28:40;98664.53;;;-3.58
80422;BMP280;69763;50.182;9.144;2024-01-15T05:31:07;98656.59;;;-3.58
80422;BMP280;69763;50.182;9.144;2024-01-15T05:33:33;98650.09;;;-3.57
80422;BMP280;69763;50.182;9.144;2024-01-15T05:35:58;98646.00;;;-3.58
80422;BMP280;69763;50.182;9.144;2024-01-15T05:38:23;98649.09;;;-3.60
80422;BMP280;69763;50.182;9.144;2024-01-15T05:40:49;98655.13;;;-3.59
80422;BMP280;69763;50.182;9.144;2024-01-15T05:43:14;98663.34;;;-3.57
80422;BMP280;69763;50.182;9.144;2024-01-15T05:45:42;98664.81;;;-3.56
80422;BMP280;69763;50.182;9.144;2024-01-15T05:48:09;98652.28;;;-3.56
80422;BMP280;69763;50.182;9.144;2024-01-15T05:50:35;98656.72;;;-3.53
80422;BMP280;69763;50.182;9.144;2024-01-15T05:53:00;98652.13;;;-3.52
80422;BMP280;69763;50.182;9.144;2024-01-15T05:55:25;98652.44;;;-3.50
80422;BMP280;69763;50.182;9.144;2024-01-15T05:57:51;98653.91;;;-3.49
80422;BMP280;69763;50.182;9.144;2024-01-15T06:00:16;98645.97;;;-3.49
80422;BMP280;69763;50.182;9.144;2024-01-15T06:02:42;98648.16;;;-3.48
80422;BMP280;69763;50.182;9.144;2024-01-15T06:05:09;98653.47;;;-3.48
80422;BMP280;69763;50.182;9.144;2024-01-15T06:07:34;98650.81;;;-3.48
80422;BMP280;69763;50.182;9.144;2024-01-15T06:10:00;98648.91;;;-3.47
80422;BMP280;69763;50.182;9.144;2024-01-15T06:12:25;98645.97;;;-3.49
80422;BMP280;69763;50.182;9.144;2024-01-15T06:14:51;98649.34;;;-3.49
80422;BMP280;69763;50.182;9.144;2024-01-15T06:17:16;98644.03;;;-3.49
80422;BMP280;69763;50.182;9.144;2024-01-15T06:19:41;98655.81;;;-3.50
80422;BMP280;69763;50.182;9.144;2024-01-15T06:22:08;98645.97;;;-3.49
80422;BMP280;69763;50.182;9.144;2024-01-15T06:24:34;98640.66;;;-3.49
80422;BMP280;69763;50.182;9.144;2024-01-15T06:26:59;98658.03;;;-3.48
80422;BMP280;69763;50.182;9.144;2024-01-15T06:29:26;98654.19;;;-3.47
80422;BMP280;69763;50.182;9.144;2024-01-15T06:31:51;98654.94;;;-3.47
80422;BMP280;69763;50.182;9.144;2024-01-15T06:34:31;98649.94;;;-3.45
80422;BMP280;69763;50.182;9.144;2024-01-15T06:36:57;98648.75;;;-3.44
80422;BMP280;69763;50.182;9.144;2024-01-15T06:39:23;98657.44;;;-3.43
80422;BMP280;69763;50.182;9.144;2024-01-15T06:41:49;98658.91;;;-3.42
80422;BMP280;69763;50.182;9.144;2024-01-15T06:44:14;98658.91;;;-3.42
80422;BMP280;69763;50.182;9.144;2024-01-15T06:46:42;98656.53;;;-3.40
80422;BMP280;69763;50.182;9.144;2024-01-15T06:49:07;98657.00;;;-3.42
80422;BMP280;69763;50.182;9.144;2024-01-15T06:51:32;98653.59;;;-3.42
80422;BMP280;69763;50.182;9.144;2024-01-15T06:53:58;98651.41;;;-3.44
80422;BMP280;69763;50.182;9.144;2024-01-15T06:56:25;98652.88;;;-3.43
80422;BMP280;69763;50.182;9.144;2024-01-15T06:58:50;98652.88;;;-3.43
80422;BMP280;69763;50.182;9.144;2024-01-15T07:01:16;98654.34;;;-3.42
80422;BMP280;69763;50.182;9.144;2024-01-15T07:03:41;98655.38;;;-3.39
80422;BMP280;69763;50.182;9.144;2024-01-15T07:06:06;98653.00;;;-3.37
80422;BMP280;69763;50.182;9.144;2024-01-15T07:08:32;98655.97;;;-3.35
80422;BMP280;69763;50.182;9.144;2024-01-15T07:10:57;98654.78;;;-3.34
80422;BMP280;69763;50.182;9.144;2024-01-15T07:13:24;98663.78;;;-3.32
80422;BMP280;69763;50.182;9.144;2024-01-15T07:15:49;98661.13;;;-3.32
80422;BMP280;69763;50.182;9.144;2024-01-15T07:18:15;98650.09;;;-3.30
80422;BMP280;69763;50.182;9.144;2024-01-15T07:20:40;98658.03;;;-3.30
80422;BMP280;69763;50.182;9.144;2024-01-15T07:23:05;98649.94;;;-3.26
80422;BMP280;69763;50.182;9.144;2024-01-15T07:25:31;98652.13;;;-3.25
80422;BMP280;69763;50.182;9.144;2024-01-15T07:27:56;98650.22;;;-3.24
80422;BMP280;69763;50.182;9.144;2024-01-15T07:30:23;98655.09;;;-3.23
80422;BMP280;69763;50.182;9.144;2024-01-15T07:32:48;98665.25;;;-3.21
80422;BMP280;69763;50.182;9.144;2024-01-15T07:35:14;98660.97;;;-3.19
80422;BMP280;69763;50.182;9.144;2024-01-15T07:37:39;98659.78;;;-3.18
80422;BMP280;69763;50.182;9.144;2024-01-15T07:40:06;98666.13;;;-3.15
80422;BMP280;69763;50.182;9.144;2024-01-15T07:42:31;98670.97;;;-3.14
80422;BMP280;69763;50.182;9.144;2024-01-15T07:44:56;98670.81;;;-3.10
80422;BMP280;69763;50.182;9.144;2024-01-15T07:47:23;98679.34;;;-3.06
80422;BMP280;69763;50.182;9.144;2024-01-15T07:49:49;98673.88;;;-3.03
80422;BMP280;69763;50.182;9.144;2024-01-15T07:52:14;98670.63;;;-2.97
80422;BMP280;69763;50.182;9.144;2024-01-15T07:54:39;98654.84;;;-2.92
80422;BMP280;69763;50.182;9.144;2024-01-15T07:57:05;98656.28;;;-2.82
80422;BMP280;69763;50.182;9.144;2024-01-15T07:59:31;98662.16;;;-2.78
80422;BMP280;69763;50.182;9.144;2024-01-15T08:01:58;98654.22;;;-2.78
80422;BMP280;69763;50.182;9.144;2024-01-15T08:04:24;98660.25;;;-2.77
80422;BMP280;69763;50.182;9.144;2024-01-15T08:06:50;98664.81;;;-2.78
80422;BMP280;69763;50.182;9.144;2024-01-15T08:09:15;98659.97;;;-2.79
80422;BMP280;69763;50.182;9.144;2024-01-15T08:11:41;98663.34;;;-2.79
80422;BMP280;69763;50.182;9.144;2024-01-15T08:14:07;98657.59;;;-2.77
80422;BMP280;69763;50.182;9.144;2024-01-15T08:16:32;98643.44;;;-2.74
80422;BMP280;69763;50.182;9.144;2024-01-15T08:18:58;98650.34;;;-2.68
80422;BMP280;69763;50.182;9.144;2024-01-15T08:21:24;98645.59;;;-2.63
80422;BMP280;69763;50.182;9.144;2024-01-15T08:23:50;98637.03;;;-2.58
80422;BMP280;69763;50.182;9.144;2024-01-15T08:26:15;98640.25;;;-2.54
80422;BMP280;69763;50.182;9.144;2024-01-15T08:28:41;98639.19;;;-2.48
80422;BMP280;69763;50.182;9.144;2024-01-15T08:31:06;98641.22;;;-2.43
80422;BMP280;69763;50.182;9.144;2024-01-15T08:33:31;98642.22;;;-2.40
80422;BMP280;69763;50.182;9.144;2024-01-15T08:35:57;98650.94;;;-2.40
80422;BMP280;69763;50.182;9.144;2024-01-15T08:38:24;98651.38;;;-2.41
80422;BMP280;69763;50.182;9.144;2024-01-15T08:40:49;98647.25;;;-2.42
80422;BMP280;69763;50.182;9.144;2024-01-15T08:43:15;98634.72;;;-2.42
80422;BMP280;69763;50.182;9.144;2024-01-15T08:45:40;98642.41;;;-2.44
80422;BMP280;69763;50.182;9.144;2024-01-15T08:48:06;98639.13;;;-2.39
80422;BMP280;69763;50.182;9.144;2024-01-15T08:50:32;98646.47;;;-2.34
80422;BMP280;69763;50.182;9.144;2024-01-15T08:52:58;98643.97;;;-2.28
80422;BMP280;69763;50.182;9.144;2024-01-15T08:55:25;98648.09;;;-2.27
80422;BMP280;69763;50.182;9.144;2024-01-15T08:57:50;98652.94;;;-2.25
80422;BMP280;69763;50.182;9.144;2024-01-15T09:00:16;98653.97;;;-2.23
80422;BMP280;69763;50.182;9.144;2024-01-15T09:02:42;98643.75;;;-2.15
80422;BMP280;69763;50.182;9.144;2024-01-15T09:05:08;98646.91;;;-2.02
80422;BMP280;69763;50.182;9.144;2024-01-15T09:07:33;98644.00;;;-1.89
80422;BMP280;69763;50.182;9.144;2024-01-15T09:09:59;98639.19;;;-1.76
80422;BMP280;69763;50.182;9.144;2024-01-15T09:12:25;98650.63;;;-1.70
80422;BMP280;69763;50.182;9.144;2024-01-15T09:14:51;98651.16;;;-1.66
80422;BMP280;69763;50.182;9.144;2024-01-15T09:17:16;98652.28;;;-1.58
80422;BMP280;69763;50.182;9.144;2024-01-15T09:19:42;98645.59;;;-1.53
80422;BMP280;69763;50.182;9.144;2024-01-15T09:22:07;98652.00;;;-1.60
80422;BMP280;69763;50.182;9.144;2024-01-15T09:24:33;98649.25;;;-1.66
80422;BMP280;69763;50.182;9.144;2024-01-15T09:26:58;98644.94;;;-1.63
80422;BMP280;69763;50.182;9.144;2024-01-15T09:29:25;98645.88;;;-1.51
80422;BMP280;69763;50.182;9.144;2024-01-15T09:31:51;98644.41;;;-1.38
80422;BMP280;69763;50.182;9.144;2024-01-15T09:34:17;98650.38;;;-1.13
80422;BMP280;69763;50.182;9.144;2024-01-15T09:36:42;98642.47;;;-0.93
80422;BMP280;69763;50.182;9.144;2024-01-15T09:39:08;98646.66;;;-0.72
80422;BMP280;69763;50.182;9.144;2024-01-15T09:41:33;98646.78;;;-0.60
80422;BMP280;69763;50.182;9.144;2024-01-15T09:43:59;98633.75;;;-0.58
80422;BMP280;69763;50.182;9.144;2024-01-15T09:46:26;98636.16;;;-0.60
80422;BMP280;69763;50.182;9.144;2024-01-15T09:48:51;98632.88;;;-0.70
80422;BMP280;69763;50.182;9.144;2024-01-15T09:51:17;98633.09;;;-0.74
80422;BMP280;69763;50.182;9.144;2024-01-15T09:53:43;98639.59;;;-0.75
80422;BMP280;69763;50.182;9.144;2024-01-15T09:56:10;98640.78;;;-0.76
80422;BMP280;69763;50.182;9.144;2024-01-15T09:58:36;98626.03;;;-0.77
80422;BMP280;69763;50.182;9.144;2024-01-15T10:01:02;98626.28;;;-0.75
80422;BMP280;69763;50.182;9.144;2024-01-15T10:03:29;98623.56;;;-0.80
80422;BMP280;69763;50.182;9.144;2024-01-15T10:05:55;98624.09;;;-0.76
80422;BMP280;69763;50.182;9.144;2024-01-15T10:08:22;98613.25;;;-0.73
80422;BMP280;69763;50.182;9.144;2024-01-15T10:10:48;98613.25;;;-0.73
80422;BMP280;69763;50.182;9.144;2024-01-15T10:13:14;98613.25;;;-0.73
80422;BMP280;69763;50.182;9.144;2024-01-15T10:15:40;98608.88;;;-0.76
80422;BMP280;69763;50.182;9.144;2024-01-15T10:18:05;98610.59;;;-0.73
80422;BMP280;69763;50.182;9.144;2024-01-15T10:20:33;98612.13;;;-0.66
80422;BMP280;69763;50.182;9.144;2024-01-15T10:23:01;98615.22;;;-0.53
80422;BMP280;69763;50.182;9.144;2024-01-15T10:25:26;98619.78;;;-0.33
80422;BMP280;69763;50.182;9.144;2024-01-15T10:27:59;98617.00;;;-0.24
80422;BMP280;69763;50.182;9.144;2024-01-15T10:30:25;98619.94;;;-0.22
80422;BMP280;69763;50.182;9.144;2024-01-15T10:32:57;98614.63;;;-0.22
80422;BMP280;69763;50.182;9.144;2024-01-15T10:35:26;98609.03;;;-0.24
80422;BMP280;69763;50.182;9.144;2024-01-15T10:37:53;98601.03;;;-0.24
80422;BMP280;69763;50.182;9.144;2024-01-15T10:40:18;98596.25;;;-0.20
80422;BMP280;69763;50.182;9.144;2024-01-15T10:42:44;98586.59;;;-0.17
80422;BMP280;69763;50.182;9.144;2024-01-15T10:45:09;98590.72;;;-0.16
80422;BMP280;69763;50.182;9.144;2024-01-15T10:47:35;98579.25;;;-0.22
80422;BMP280;69763;50.182;9.144;2024-01-15T10:50:01;98577.81;;;-0.23
80422;BMP280;69763;50.182;9.144;2024-01-15T10:52:27;98579.72;;;-0.24
80422;BMP280;69763;50.182;9.144;2024-01-15T10:54:54;98577.81;;;-0.23
80422;BMP280;69763;50.182;9.144;2024-01-15T10:57:21;98590.03;;;-0.11
80422;BMP280;69763;50.182;9.144;2024-01-15T10:59:46;98575.94;;;0.09
80422;BMP280;69763;50.182;9.144;2024-01-15T11:02:13;98585.75;;;0.23
80422;BMP280;69763;50.182;9.144;2024-01-15T11:04:39;98582.41;;;0.28
80422;BMP280;69763;50.182;9.144;2024-01-15T11:07:05;98575.88;;;0.29
80422;BMP280;69763;50.182;9.144;2024-01-15T11:09:30;98581.44;;;0.25
80422;BMP280;69763;50.182;9.144;2024-01-15T11:12:09;98582.72;;;0.35
80422;BMP280;69763;50.182;9.144;2024-01-15T11:14:35;98569.50;;;0.47
80422;BMP280;69763;50.182;9.144;2024-01-15T11:17:00;98556.91;;;0.47
80422;BMP280;69763;50.182;9.144;2024-01-15T11:19:25;98558.41;;;0.54
80422;BMP280;69763;50.182;9.144;2024-01-15T11:21:51;98547.31;;;0.66
80422;BMP280;69763;50.182;9.144;2024-01-15T11:24:34;98552.69;;;0.72
80422;BMP280;69763;50.182;9.144;2024-01-15T11:26:59;98546.41;;;0.75
80422;BMP280;69763;50.182;9.144;2024-01-15T11:29:33;98546.38;;;0.69
80422;BMP280;69763;50.182;9.144;2024-01-15T11:32:01;98540.53;;;0.60
80422;BMP280;69763;50.182;9.144;2024-01-15T11:34:52;98534.19;;;0.57
80422;BMP280;69763;50.182;9.144;2024-01-15T11:37:18;98536.63;;;0.61
80422;BMP280;69763;50.182;9.144;2024-01-15T11:39:44;98534.75;;;0.72
80422;BMP280;69763;50.182;9.144;2024-01-15T11:42:10;98551.03;;;0.80
80422;BMP280;69763;50.182;9.144;2024-01-15T11:44:37;98544.53;;;0.87
80422;BMP280;69763;50.182;9.144;2024-01-15T11:47:04;98550.63;;;0.87
80422;BMP280;69763;50.182;9.144;2024-01-15T11:52:31;98546.84;;;0.68
80422;BMP280;69763;50.182;9.144;2024-01-15T11:55:01;98542.56;;;0.45
80422;BMP280;69763;50.182;9.144;2024-01-15T11:57:36;98545.78;;;0.23
80422;BMP280;69763;50.182;9.144;2024-01-15T12:00:05;98540.34;;;0.06
80422;BMP280;69763;50.182;9.144;2024-01-15T12:02:30;98537.28;;;-0.07
80422;BMP280;69763;50.182;9.144;2024-01-15T12:04:56;98538.66;;;-0.17
80422;BMP280;69763;50.182;9.144;2024-01-15T12:07:21;98542.53;;;-0.18
80422;BMP280;69763;50.182;9.144;2024-01-15T12:09:46;98535.72;;;-0.19
80422;BMP280;69763;50.182;9.144;2024-01-15T12:12:21;98528.47;;;-0.19
80422;BMP280;69763;50.182;9.144;2024-01-15T12:14:49;98516.63;;;-0.18
80422;BMP280;69763;50.182;9.144;2024-01-15T12:17:16;98513.44;;;-0.22
80422;BMP280;69763;50.182;9.144;2024-01-15T12:19:43;98517.69;;;-0.30
80422;BMP280;69763;50.182;9.144;2024-01-15T12:22:08;98512.06;;;-0.38
80422;BMP280;69763;50.182;9.144;2024-01-15T12:24:33;98507.88;;;-0.44
80422;BMP280;69763;50.182;9.144;2024-01-15T12:26:59;98502.50;;;-0.50
80422;BMP280;69763;50.182;9.144;2024-01-15T12:29:25;98509.03;;;-0.51
80422;BMP280;69763;50.182;9.144;2024-01-15T12:31:50;98510.28;;;-0.46
80422;BMP280;69763;50.182;9.144;2024-01-15T12:34:18;98508.13;;;-0.42
80422;BMP280;69763;50.182;9.144;2024-01-15T12:36:45;98508.41;;;-0.40
80422;BMP280;69763;50.182;9.144;2024-01-15T12:39:11;98515.38;;;-0.43
80422;BMP280;69763;50.182;9.144;2024-01-15T12:41:36;98524.78;;;-0.47
80422;BMP280;69763;50.182;9.144;2024-01-15T12:44:04;98516.47;;;-0.55
80422;BMP280;69763;50.182;9.144;2024-01-15T12:46:29;98518.88;;;-0.57
80422;BMP280;69763;50.182;9.144;2024-01-15T12:48:56;98523.19;;;-0.59
80422;BMP280;69763;50.182;9.144;2024-01-15T12:51:25;98517.59;;;-0.61
80422;BMP280;69763;50.182;9.144;2024-01-15T12:53:51;98526.03;;;-0.63
80422;BMP280;69763;50.182;9.144;2024-01-15T12:56:16;98516.34;;;-0.66
80422;BMP280;69763;50.182;9.144;2024-01-15T12:58:41;98518.75;;;-0.68
80422;BMP280;69763;50.182;9.144;2024-01-15T13:01:07;98533.72;;;-0.71
80422;BMP280;69763;50.182;9.144;2024-01-15T13:03:32;98523.53;;;-0.72
80422;BMP280;69763;50.182;9.144;2024-01-15T13:05:58;98525.94;;;-0.74
80422;BMP280;69763;50.182;9.144;2024-01-15T13:08:24;98523.00;;;-0.76
80422;BMP280;69763;50.182;9.144;2024-01-15T13:10:50;98528.06;;;-0.78
80422;BMP280;69763;50.182;9.144;2024-01-15T13:13:15;98523.19;;;-0.80
80422;BMP280;69763;50.182;9.144;2024-01-15T13:15:41;98526.59;;;-0.79
80422;BMP280;69763;50.182;9.144;2024-01-15T13:18:06;98522.47;;;-0.80
80422;BMP280;69763;50.182;9.144;2024-01-15T13:20:32;98526.13;;;-0.78
80422;BMP280;69763;50.182;9.144;2024-01-15T13:22:57;98526.41;;;-0.76
80422;BMP280;69763;50.182;9.144;2024-01-15T13:25:24;98533.19;;;-0.75
80422;BMP280;69763;50.182;9.144;2024-01-15T13:27:50;98525.00;;;-0.71
80422;BMP280;69763;50.182;9.144;2024-01-15T13:30:15;98537.38;;;-0.68
80422;BMP280;69763;50.182;9.144;2024-01-15T13:32:41;98534.25;;;-0.67
80422;BMP280;69763;50.182;9.144;2024-01-15T13:35:07;98538.63;;;-0.63
80422;BMP280;69763;50.182;9.144;2024-01-15T13:37:32;98543.28;;;-0.58
80422;BMP280;69763;50.182;9.144;2024-01-15T13:39:57;98531.50;;;-0.52
80422;BMP280;69763;50.182;9.144;2024-01-15T13:42:24;98535.47;;;-0.42
80422;BMP280;69763;50.182;9.144;2024-01-15T13:44:50;98540.19;;;-0.31
80422;BMP280;69763;50.182;9.144;2024-01-15T13:47:15;98547.78;;;-0.24
80422;BMP280;69763;50.182;9.144;2024-01-15T13:49:40;98552.66;;;-0.22
80422;BMP280;69763;50.182;9.144;2024-01-15T13:52:06;98551.44;;;-0.21
80422;BMP280;69763;50.182;9.144;2024-01-15T13:54:31;98548.06;;;-0.22
80422;BMP280;69763;50.182;9.144;2024-01-15T13:56:57;98551.91;;;-0.23
80422;BMP280;69763;50.182;9.144;2024-01-15T13:59:23;98554.09;;;-0.21
80422;BMP280;69763;50.182;9.144;2024-01-15T14:01:49;98552.91;;;-0.20
80422;BMP280;69763;50.182;9.144;2024-01-15T14:04:14;98554.84;;;-0.21